• Join FlightAware (Why Join?)
  • Login
  • US Flag 
12:41AM EDT


 

Airport Tracker/Info


-or-


 

Live Flight TrackerFlight Track Log ✈ CSN6087 ✈ 17-Aug-2013 ✈ ZYMD / MDG - RKSI / ICN

Flight Track Log - Related Links

Times and Time Zones

All times are in EDT time to prevent confusion due to time zone crossing. See the CSN6087 flight status page for this flight to view local times or setup timezone preferences in your user account.

Time Position Orientation Groundspeed Altitude Reporting Facility
EDT Latitude Longitude Course Direction KTS MPH feet Rate Location/Type
03:51AM 44.4554 129.5349 199° South  Level Estimated
03:52AM 44.3867 129.5009 199° South  Level Estimated
03:53AM 44.3180 129.4671 199° South  Level Estimated
03:54AM 44.2493 129.4332 199° South  Level Estimated
03:55AM 44.1805 129.3995 199° South  Level Estimated
03:56AM 44.1118 129.3658 199° South  Level Estimated
03:57AM 44.0430 129.3323 199° South  Level Estimated
03:58AM 43.9743 129.2988 199° South  Level Estimated
03:59AM 43.9055 129.2654 199° South  Level Estimated
04:00AM 43.8367 129.2320 199° South  Level Estimated
04:01AM 43.7679 129.1987 199° South  Level Estimated
04:02AM 43.6992 129.1655 199° South  Level Estimated
04:03AM 43.6304 129.1324 199° South  Level Estimated
04:04AM 43.5616 129.0994 199° South  Level Estimated
04:05AM 43.4927 129.0664 199° South  Level Estimated
04:06AM 43.4239 129.0335 199° South  Level Estimated
04:07AM 43.3551 129.0007 199° South  Level Estimated
04:08AM 43.2862 128.9680 199° South  Level Estimated
04:09AM 43.2174 128.9353 199° South  Level Estimated
04:10AM 43.1485 128.9027 199° South  Level Estimated
04:11AM 43.0796 128.8702 199° South  Level Estimated
04:12AM 43.0107 128.8377 199° South  Level Estimated
04:13AM 42.9418 128.8054 199° South  Level Estimated
04:14AM 42.8729 128.7731 199° South  Level Estimated
04:15AM 42.8040 128.7408 199° South  Level Estimated
04:16AM 42.7351 128.7087 199° South  Level Estimated
04:17AM 42.6661 128.6766 199° South  Level Estimated
04:18AM 42.5972 128.6446 199° South  Level Estimated
04:19AM 42.5282 128.6126 199° South  Level Estimated
04:20AM 42.4593 128.5807 199° South  Level Estimated
04:21AM 42.3903 128.5489 199° South  Level Estimated
04:22AM 42.3213 128.5172 199° South  Level Estimated
04:23AM 42.2523 128.4855 199° South  Level Estimated
04:24AM 42.1833 128.4539 199° South  Level Estimated
04:25AM 42.1143 128.4224 199° South  Level Estimated
04:26AM 42.0453 128.3909 199° South  Level Estimated
04:27AM 41.9763 128.3596 199° South  Level Estimated
04:28AM 41.9073 128.3282 199° South  Level Estimated
04:29AM 41.8382 128.2970 199° South  Level Estimated
04:30AM 41.7692 128.2658 199° South  Level Estimated
04:31AM 41.7001 128.2347 199° South  Level Estimated
04:32AM 41.6311 128.2036 199° South  Level Estimated
04:33AM 41.5620 128.1726 199° South  Level Estimated
04:34AM 41.4929 128.1417 199° South  Level Estimated
04:35AM 41.4238 128.1109 199° South  Level Estimated
04:36AM 41.3547 128.0801 198° South  Level Estimated
04:37AM 41.2856 128.0493 198° South  Level Estimated
04:38AM 41.2165 128.0187 198° South  Level Estimated
04:39AM 41.1474 127.9881 198° South  Level Estimated
04:40AM 41.0783 127.9576 198° South  Level Estimated
04:41AM 41.0091 127.9271 198° South  Level Estimated
04:42AM 40.9400 127.8967 198° South  Level Estimated
04:43AM 40.8708 127.8664 198° South  Level Estimated
04:44AM 40.8017 127.8361 198° South  Level Estimated
04:45AM 40.7325 127.8059 198° South  Level Estimated
04:46AM 40.6633 127.7757 198° South  Level Estimated
04:47AM 40.5942 127.7456 198° South  Level Estimated
04:48AM 40.5250 127.7156 198° South  Level Estimated
04:49AM 40.4558 127.6857 198° South  Level Estimated
04:50AM 40.3866 127.6557 198° South  Level Estimated
04:51AM 40.3173 127.6259 198° South  Level Estimated
04:52AM 40.2481 127.5961 198° South  Level Estimated
04:53AM 40.1789 127.5664 198° South  Level Estimated
04:54AM 40.1096 127.5368 198° South  Level Estimated
04:55AM 40.0404 127.5071 198° South  Level Estimated
04:56AM 39.9711 127.4776 198° South  Level Estimated
04:57AM 39.9019 127.4481 198° South  Level Estimated
04:58AM 39.8326 127.4187 198° South  Level Estimated
04:59AM 39.7633 127.3894 198° South  Level Estimated
05:00AM 39.6940 127.3600 198° South  Level Estimated
05:01AM 39.6248 127.3308 198° South  Level Estimated
05:02AM 39.5555 127.3016 198° South  Level Estimated
05:03AM 39.4861 127.2725 198° South  Level Estimated
05:04AM 39.4168 127.2434 198° South  Level Estimated
05:05AM 39.3475 127.2144 198° South  Level Estimated
05:06AM 39.2782 127.1855 198° South  Level Estimated
05:07AM 39.2089 127.1566 198° South  Level Estimated
05:08AM 39.1395 127.1277 198° South  Level Estimated
05:09AM 39.0702 127.0990 198° South  Level Estimated
05:10AM 39.0008 127.0703 198° South  Level Estimated
05:11AM 38.9314 127.0416 198° South  Level Estimated
05:12AM 38.8621 127.0130 198° South  Level Estimated
05:13AM 38.7927 126.9844 198° South  Level Estimated
05:14AM 38.7233 126.9559 198° South  Level Estimated
05:15AM 38.6539 126.9275 198° South  Level Estimated
05:16AM 38.5845 126.8991 198° South  Level Estimated
05:17AM 38.5151 126.8708 198° South  Level Estimated
05:18AM 38.4457 126.8425 198° South  Level Estimated
05:19AM 38.3763 126.8143 198° South  Level Estimated
05:20AM 38.3069 126.7861 198° South  Level Estimated
05:21AM 38.2374 126.7580 198° South  Level Estimated
05:22AM 38.1680 126.7299 198° South  Level Estimated
05:23AM 38.0986 126.7019 198° South  Level Estimated
05:24AM 38.0291 126.6739 198° South  Level Estimated
05:25AM 37.9597 126.6460 198° South  Level Estimated
05:26AM 37.8902 126.6182 198° South  Level Estimated
05:27AM 37.8207 126.5904 198° South  Level Estimated
05:28AM 37.7513 126.5626 198° South  Level Estimated
05:29AM 37.6818 126.5350 198° South  Level Estimated
05:30AM 37.6123 126.5073 197° South  Level Estimated
05:31AM 37.5428 126.4797 197° South  Level Estimated
05:32AM 37.4733 126.4522 197° South  Level Estimated
05:33AM 37.4691 126.4505 197° South  Level Estimated
05:34AM 37.4691 126.4505 335° Northwest  Level Estimated
05:35AM 37.4691 126.4505 335° Northwest  Level Estimated
05:36AM 37.4691 126.4505 335° Northwest  Level Estimated
05:37AM 37.4691 126.4505 335° Northwest  Level Estimated
05:38AM 37.4691 126.4505 335° Northwest  Level Estimated
05:39AM 37.4691 126.4505 335° Northwest  Level Estimated
05:40AM 37.4691 126.4505 335° Northwest  Level Estimated
05:41AM 37.4691 126.4505 335° Northwest  Level Estimated
05:42AM 37.4691 126.4505 335° Northwest  Level Estimated
05:43AM 37.4691 126.4505 335° Northwest  Level Estimated
05:44AM 37.4691 126.4505 335° Northwest  Level Estimated
05:45AM 37.4691 126.4505 335° Northwest  Level Estimated
05:46AM 37.4691 126.4505 335° Northwest  Level Estimated
05:47AM 37.4691 126.4505 335° Northwest  Level Estimated